createdAt,value
2018-11-06T00:01:00.535Z,0
2018-11-06T00:02:09.169Z,0
2018-11-06T00:03:17.812Z,0
2018-11-06T00:04:26.448Z,0
2018-11-06T00:05:35.085Z,0
2018-11-06T00:06:43.738Z,0
2018-11-06T00:07:52.635Z,0
2018-11-06T00:09:01.555Z,0
2018-11-06T00:10:10.168Z,0
2018-11-06T00:11:18.804Z,0
2018-11-06T00:12:27.452Z,0
2018-11-06T00:13:36.091Z,0
2018-11-06T00:14:45.000Z,0
2018-11-06T00:15:53.631Z,0
2018-11-06T00:17:02.277Z,0
2018-11-06T00:18:10.919Z,0
2018-11-06T00:19:19.564Z,0
2018-11-06T00:20:28.470Z,0
2018-11-06T00:21:37.118Z,0
2018-11-06T00:22:45.753Z,0
2018-11-06T00:23:54.392Z,0
2018-11-06T00:25:03.022Z,0
2018-11-06T00:26:11.661Z,0
2018-11-06T00:27:20.305Z,0
2018-11-06T00:28:28.949Z,0
2018-11-06T00:29:37.860Z,0
2018-11-06T00:30:46.753Z,0
2018-11-06T00:31:55.398Z,0
2018-11-06T00:33:04.303Z,0
2018-11-06T00:34:13.023Z,0
2018-11-06T00:35:21.587Z,0
2018-11-06T00:36:30.228Z,0
2018-11-06T00:37:38.861Z,0
2018-11-06T00:38:47.512Z,0
2018-11-06T00:39:56.143Z,0
2018-11-06T00:41:04.779Z,0
2018-11-06T00:42:13.416Z,0
2018-11-06T00:43:22.063Z,0
2018-11-06T00:44:30.699Z,0
2018-11-06T00:45:39.332Z,0
2018-11-06T00:46:48.233Z,0
2018-11-06T00:47:56.866Z,0
2018-11-06T00:49:05.517Z,0
2018-11-06T00:50:14.161Z,0
2018-11-06T00:51:23.075Z,0
2018-11-06T00:52:31.704Z,0
2018-11-06T00:53:40.352Z,0
2018-11-06T00:54:48.987Z,0
2018-11-06T00:55:57.634Z,0
2018-11-06T00:57:06.261Z,0
2018-11-06T00:58:14.909Z,0
2018-11-06T00:59:23.544Z,0
2018-11-06T01:00:32.186Z,0
2018-11-06T01:01:40.815Z,0
2018-11-06T01:02:49.722Z,0
2018-11-06T01:03:58.365Z,0
2018-11-06T01:05:07.001Z,0
2018-11-06T01:06:15.644Z,0
2018-11-06T01:07:24.543Z,0
2018-11-06T01:08:33.444Z,0
2018-11-06T01:09:42.084Z,0
2018-11-06T01:10:50.993Z,0
2018-11-06T01:11:59.626Z,0
2018-11-06T01:13:08.277Z,0
2018-11-06T01:14:16.912Z,0
2018-11-06T01:15:25.556Z,0
2018-11-06T01:16:34.187Z,0
2018-11-06T01:17:43.092Z,0
2018-11-06T01:18:51.727Z,0
2018-11-06T01:20:00.629Z,0
2018-11-06T01:21:09.269Z,0
2018-11-06T01:22:18.433Z,0
2018-11-06T01:23:27.339Z,0
2018-11-06T01:24:35.969Z,0
2018-11-06T01:25:44.613Z,0
2018-11-06T01:26:53.255Z,0
2018-11-06T01:28:02.160Z,0
2018-11-06T01:29:10.792Z,0
2018-11-06T01:30:19.703Z,0
2018-11-06T01:31:28.341Z,0
2018-11-06T01:32:36.980Z,0
2018-11-06T01:33:45.880Z,0
2018-11-06T01:34:54.520Z,0
2018-11-06T01:36:03.157Z,0
2018-11-06T01:37:11.797Z,0
2018-11-06T01:38:20.432Z,0
2018-11-06T01:39:29.072Z,0
2018-11-06T01:40:37.708Z,0
2018-11-06T01:41:46.356Z,0
2018-11-06T01:42:54.996Z,0
2018-11-06T01:44:03.632Z,0
2018-11-06T01:45:12.269Z,0
2018-11-06T01:46:20.907Z,0
2018-11-06T01:47:29.553Z,0
2018-11-06T01:48:38.186Z,0
2018-11-06T01:49:46.824Z,0
2018-11-06T01:50:55.464Z,0
2018-11-06T01:52:04.110Z,0
2018-11-06T01:53:12.737Z,0
2018-11-06T01:54:21.376Z,0
2018-11-06T01:55:30.012Z,0
2018-11-06T01:56:38.655Z,0
2018-11-06T01:57:47.568Z,0
2018-11-06T01:58:56.199Z,0
2018-11-06T02:00:04.835Z,0
2018-11-06T02:01:13.470Z,0
2018-11-06T02:02:22.114Z,0
2018-11-06T02:03:30.749Z,0
2018-11-06T02:04:39.387Z,0
2018-11-06T02:05:48.562Z,0
2018-11-06T02:06:57.195Z,0
2018-11-06T02:08:06.093Z,0
2018-11-06T02:09:14.726Z,0
2018-11-06T02:10:23.373Z,0
2018-11-06T02:11:32.005Z,0
2018-11-06T02:12:40.647Z,0
2018-11-06T02:13:49.283Z,0
2018-11-06T02:14:57.924Z,0
2018-11-06T02:16:06.564Z,0
2018-11-06T02:17:15.203Z,0
2018-11-06T02:18:24.096Z,0
2018-11-06T02:19:32.732Z,0
2018-11-06T02:20:41.378Z,0
2018-11-06T02:21:50.288Z,0
2018-11-06T02:22:58.930Z,0
2018-11-06T02:24:07.566Z,0
2018-11-06T02:25:16.222Z,0
2018-11-06T02:26:25.119Z,0
2018-11-06T02:27:33.757Z,0
2018-11-06T02:28:42.395Z,0
2018-11-06T02:29:51.300Z,0
2018-11-06T02:30:59.939Z,0
2018-11-06T02:32:08.670Z,0
2018-11-06T02:33:17.599Z,0
2018-11-06T02:34:26.239Z,0
2018-11-06T02:35:34.880Z,0
2018-11-06T02:36:43.517Z,0
2018-11-06T02:37:52.159Z,0
2018-11-06T02:39:01.057Z,0
2018-11-06T02:40:09.699Z,0
2018-11-06T02:41:18.601Z,0
2018-11-06T02:42:27.244Z,0
2018-11-06T02:43:35.878Z,0
2018-11-06T02:44:44.525Z,0
2018-11-06T02:45:53.439Z,0
2018-11-06T02:47:02.356Z,0
2018-11-06T02:48:10.988Z,0
2018-11-06T02:49:19.629Z,0
2018-11-06T02:50:28.271Z,0
2018-11-06T02:51:36.916Z,0
2018-11-06T02:52:45.554Z,0
2018-11-06T02:53:54.186Z,0
2018-11-06T02:55:02.825Z,0
2018-11-06T02:56:11.461Z,0
2018-11-06T02:57:20.102Z,0
2018-11-06T02:58:28.742Z,0
2018-11-06T02:59:37.640Z,0
2018-11-06T03:00:46.274Z,0
2018-11-06T03:01:55.183Z,0
2018-11-06T03:03:04.092Z,0
2018-11-06T03:04:12.999Z,0
2018-11-06T03:05:21.632Z,0
2018-11-06T03:06:30.542Z,0
2018-11-06T03:07:39.709Z,0
2018-11-06T03:08:48.348Z,0
2018-11-06T03:09:56.979Z,0
2018-11-06T03:11:05.911Z,0
2018-11-06T03:12:14.548Z,0
2018-11-06T03:13:23.711Z,0
2018-11-06T03:14:32.353Z,0
2018-11-06T03:15:40.980Z,0
2018-11-06T03:16:49.676Z,0
2018-11-06T03:17:58.255Z,0
2018-11-06T03:19:06.900Z,0
2018-11-06T03:20:15.533Z,0
2018-11-06T03:21:24.719Z,0
2018-11-06T03:22:33.622Z,0
2018-11-06T03:23:42.272Z,0
2018-11-06T03:24:50.905Z,0
2018-11-06T03:25:59.813Z,0
2018-11-06T03:27:08.822Z,0
2018-11-06T03:28:17.368Z,0
2018-11-06T03:29:26.009Z,0
2018-11-06T03:30:35.179Z,0
2018-11-06T03:31:44.379Z,0
2018-11-06T03:32:53.028Z,0
2018-11-06T03:34:01.666Z,0
2018-11-06T03:35:10.302Z,0
2018-11-06T03:36:18.950Z,0
2018-11-06T03:37:27.841Z,0
2018-11-06T03:38:36.491Z,0
2018-11-06T03:39:45.126Z,0
2018-11-06T03:40:53.767Z,0
2018-11-06T03:42:02.401Z,0
2018-11-06T03:43:11.322Z,0
2018-11-06T03:44:19.957Z,0
2018-11-06T03:45:28.596Z,0
2018-11-06T03:46:37.227Z,0
2018-11-06T03:47:45.863Z,0
2018-11-06T03:48:54.790Z,0
2018-11-06T03:50:03.431Z,0
2018-11-06T03:51:12.334Z,0
2018-11-06T03:52:20.962Z,0
2018-11-06T03:53:29.606Z,0
2018-11-06T03:54:38.508Z,0
2018-11-06T03:55:47.431Z,0
2018-11-06T03:56:56.058Z,0
2018-11-06T03:58:04.701Z,0
2018-11-06T03:59:13.336Z,0
2018-11-06T04:00:21.981Z,0
2018-11-06T04:01:30.613Z,0
2018-11-06T04:02:39.254Z,0
2018-11-06T04:03:47.891Z,0
2018-11-06T04:04:56.540Z,0
2018-11-06T04:06:05.177Z,0
2018-11-06T04:07:13.822Z,0
2018-11-06T04:08:22.466Z,0
2018-11-06T04:09:31.364Z,0
2018-11-06T04:10:40.275Z,0
2018-11-06T04:11:49.188Z,0
2018-11-06T04:12:58.089Z,0
2018-11-06T04:14:06.994Z,0
2018-11-06T04:15:15.638Z,0
2018-11-06T04:16:24.275Z,0
2018-11-06T04:17:32.917Z,0
2018-11-06T04:18:41.573Z,0
2018-11-06T04:19:50.204Z,0
2018-11-06T04:20:59.103Z,0
2018-11-06T04:22:08.274Z,0
2018-11-06T04:23:16.903Z,0
2018-11-06T04:24:25.547Z,0
2018-11-06T04:25:34.192Z,0
2018-11-06T04:26:43.095Z,0
2018-11-06T04:27:51.774Z,0
2018-11-06T04:29:00.372Z,0
2018-11-06T04:30:09.011Z,0
2018-11-06T04:31:17.656Z,0
2018-11-06T04:32:26.294Z,0
2018-11-06T04:33:35.191Z,0
2018-11-06T04:34:43.830Z,0
2018-11-06T04:35:53.002Z,0
2018-11-06T04:37:01.643Z,0
2018-11-06T04:38:10.806Z,0
2018-11-06T04:39:19.446Z,0
2018-11-06T04:40:28.080Z,0
2018-11-06T04:41:36.724Z,0
2018-11-06T04:42:45.363Z,0
2018-11-06T04:43:54.258Z,0
2018-11-06T04:45:02.900Z,0
2018-11-06T04:46:11.530Z,0
2018-11-06T04:47:20.174Z,0
2018-11-06T04:48:28.816Z,0
2018-11-06T04:49:37.458Z,0
2018-11-06T04:50:46.091Z,0
2018-11-06T04:51:55.003Z,0
2018-11-06T04:53:03.644Z,0
2018-11-06T04:54:12.283Z,0
2018-11-06T04:55:20.916Z,0
2018-11-06T04:56:29.824Z,0
2018-11-06T04:57:38.721Z,0
2018-11-06T04:58:47.365Z,0
2018-11-06T04:59:56.258Z,0
2018-11-06T05:01:04.898Z,0
2018-11-06T05:02:13.675Z,0
2018-11-06T05:03:22.180Z,0
2018-11-06T05:04:30.821Z,0
2018-11-06T05:05:39.455Z,0
2018-11-06T05:06:48.162Z,0
2018-11-06T05:07:56.731Z,0
2018-11-06T05:09:05.378Z,0
2018-11-06T05:10:14.007Z,0
2018-11-06T05:11:22.649Z,0
2018-11-06T05:12:31.291Z,0
2018-11-06T05:13:40.196Z,0
2018-11-06T05:14:48.823Z,0
2018-11-06T05:15:57.737Z,0
2018-11-06T05:17:06.376Z,0
2018-11-06T05:18:15.485Z,0
2018-11-06T05:19:24.120Z,0
2018-11-06T05:20:33.015Z,0
2018-11-06T05:21:41.920Z,0
2018-11-06T05:22:50.556Z,0
2018-11-06T05:23:59.203Z,0
2018-11-06T05:25:08.109Z,0
2018-11-06T05:26:17.014Z,0
2018-11-06T05:27:25.757Z,0
2018-11-06T05:28:34.293Z,0
2018-11-06T05:29:42.925Z,0
2018-11-06T05:30:51.572Z,0
2018-11-06T05:32:00.202Z,0
2018-11-06T05:33:09.479Z,0
2018-11-06T05:34:18.115Z,0
2018-11-06T05:35:27.014Z,0
2018-11-06T05:36:35.644Z,0
2018-11-06T05:37:44.282Z,0
2018-11-06T05:38:52.931Z,0
2018-11-06T05:40:01.565Z,0
2018-11-06T05:41:10.731Z,0
2018-11-06T05:42:19.622Z,0
2018-11-06T05:43:28.266Z,0
2018-11-06T05:44:36.901Z,0
2018-11-06T05:45:45.633Z,0
2018-11-06T05:46:54.173Z,0
2018-11-06T05:48:02.816Z,0
2018-11-06T05:49:11.448Z,0
2018-11-06T05:50:20.092Z,0
2018-11-06T05:51:28.721Z,0
2018-11-06T05:52:37.360Z,0
2018-11-06T05:53:45.997Z,0
2018-11-06T05:54:54.643Z,0
2018-11-06T05:56:03.290Z,0
2018-11-06T05:57:11.918Z,0
2018-11-06T05:58:20.563Z,0
2018-11-06T05:59:29.205Z,4
2018-11-06T06:00:38.303Z,4
2018-11-06T06:01:46.850Z,0
2018-11-06T06:02:55.482Z,4
2018-11-06T06:04:04.128Z,0
2018-11-06T06:05:12.758Z,4
2018-11-06T06:06:21.398Z,0
2018-11-06T06:07:30.036Z,4
2018-11-06T06:08:38.941Z,4
2018-11-06T06:09:47.571Z,4
2018-11-06T06:10:56.215Z,8
2018-11-06T06:12:04.845Z,8
2018-11-06T06:13:13.493Z,8
2018-11-06T06:14:22.128Z,12
2018-11-06T06:15:30.758Z,12
2018-11-06T06:16:39.450Z,16
2018-11-06T06:17:48.026Z,20
2018-11-06T06:18:56.669Z,24
2018-11-06T06:20:05.305Z,28
2018-11-06T06:21:13.948Z,28
2018-11-06T06:22:22.644Z,32
2018-11-06T06:23:31.223Z,40
2018-11-06T06:24:39.859Z,44
2018-11-06T06:25:48.497Z,48
2018-11-06T06:26:57.385Z,56
2018-11-06T06:28:06.033Z,64
2018-11-06T06:29:14.932Z,72
2018-11-06T06:30:23.573Z,80
2018-11-06T06:31:32.457Z,88
2018-11-06T06:32:41.099Z,92
2018-11-06T06:33:50.009Z,100
2018-11-06T06:34:59.310Z,104
2018-11-06T06:36:08.154Z,112
2018-11-06T06:37:16.785Z,116
2018-11-06T06:38:25.460Z,128
2018-11-06T06:39:34.061Z,136
2018-11-06T06:40:42.739Z,140
2018-11-06T06:41:51.680Z,148
2018-11-06T06:43:00.321Z,152
2018-11-06T06:44:08.955Z,160
2018-11-06T06:45:17.602Z,164
2018-11-06T06:46:26.775Z,172
2018-11-06T06:47:36.166Z,180
2018-11-06T06:48:44.802Z,192
2018-11-06T06:49:53.449Z,200
2018-11-06T06:51:02.084Z,208
2018-11-06T06:52:10.716Z,220
2018-11-06T06:53:19.349Z,232
2018-11-06T06:54:28.138Z,248
2018-11-06T06:55:36.633Z,264
2018-11-06T06:56:45.270Z,280
2018-11-06T06:57:53.908Z,296
2018-11-06T06:59:02.543Z,316
2018-11-06T07:00:11.184Z,332
2018-11-06T07:01:19.819Z,348
2018-11-06T07:02:28.803Z,368
2018-11-06T07:03:37.400Z,388
2018-11-06T07:04:46.041Z,404
2018-11-06T07:05:54.947Z,416
2018-11-06T07:07:03.586Z,432
2018-11-06T07:08:12.482Z,448
2018-11-06T07:09:21.122Z,464
2018-11-06T07:10:29.760Z,480
2018-11-06T07:11:38.403Z,496
2018-11-06T07:12:47.105Z,516
2018-11-06T07:13:55.680Z,532
2018-11-06T07:15:04.322Z,556
2018-11-06T07:16:12.968Z,576
2018-11-06T07:17:21.611Z,592
2018-11-06T07:18:30.252Z,616
2018-11-06T07:19:38.879Z,640
2018-11-06T07:20:47.519Z,668
2018-11-06T07:21:56.161Z,696
2018-11-06T07:23:04.793Z,728
2018-11-06T07:24:13.432Z,760
2018-11-06T07:25:22.067Z,788
2018-11-06T07:26:30.715Z,812
2018-11-06T07:27:39.352Z,832
2018-11-06T07:28:48.376Z,844
2018-11-06T07:29:56.960Z,860
2018-11-06T07:31:05.599Z,864
2018-11-06T07:32:14.235Z,872
2018-11-06T07:33:22.880Z,876
2018-11-06T07:34:31.582Z,884
2018-11-06T07:35:40.343Z,892
2018-11-06T07:36:48.800Z,904
2018-11-06T07:37:57.695Z,916
2018-11-06T07:39:06.333Z,924
2018-11-06T07:40:15.228Z,944
2018-11-06T07:41:23.873Z,968
2018-11-06T07:42:33.717Z,988
2018-11-06T07:43:43.553Z,1012
2018-11-06T07:44:52.187Z,1032
2018-11-06T07:46:00.834Z,1056
2018-11-06T07:47:09.473Z,1080
2018-11-06T07:48:18.114Z,1100
2018-11-06T07:49:26.758Z,1116
2018-11-06T07:50:35.501Z,1124
2018-11-06T07:51:44.030Z,1128
2018-11-06T07:52:52.668Z,1140
2018-11-06T07:54:01.310Z,1148
2018-11-06T07:55:10.210Z,1152
2018-11-06T07:56:19.022Z,1156
2018-11-06T07:57:27.483Z,1164
2018-11-06T07:58:36.124Z,1172
2018-11-06T07:59:44.758Z,1184
2018-11-06T08:00:53.399Z,1192
2018-11-06T08:02:02.036Z,1200
2018-11-06T08:03:10.681Z,1208
2018-11-06T08:04:19.341Z,1224
2018-11-06T08:05:27.953Z,1244
2018-11-06T08:06:36.592Z,1264
2018-11-06T08:07:45.486Z,1284
2018-11-06T08:08:54.131Z,1308
2018-11-06T08:10:03.036Z,1328
2018-11-06T08:11:11.675Z,1364
2018-11-06T08:12:20.309Z,1388
2018-11-06T08:13:28.958Z,1424
2018-11-06T08:14:37.670Z,1456
2018-11-06T08:15:46.661Z,1484
2018-11-06T08:16:55.558Z,1512
2018-11-06T08:18:04.266Z,1536
2018-11-06T08:19:12.839Z,1564
2018-11-06T08:20:21.780Z,1596
2018-11-06T08:21:30.397Z,1624
2018-11-06T08:22:39.036Z,1656
2018-11-06T08:23:48.121Z,1684
2018-11-06T08:24:56.707Z,1736
2018-11-06T08:26:05.353Z,1800
2018-11-06T08:27:13.986Z,1848
2018-11-06T08:28:22.627Z,1892
2018-11-06T08:29:31.284Z,1908
2018-11-06T08:30:39.982Z,1928
2018-11-06T08:31:49.842Z,1936
2018-11-06T08:32:58.084Z,1928
2018-11-06T08:34:06.735Z,1924
2018-11-06T08:35:15.644Z,1916
2018-11-06T08:36:24.323Z,1912
2018-11-06T08:37:32.920Z,1960
2018-11-06T08:38:41.557Z,1988
2018-11-06T08:39:50.199Z,2012
2018-11-06T08:40:58.837Z,2008
2018-11-06T08:42:07.477Z,2048
2018-11-06T08:43:16.115Z,2120
2018-11-06T08:44:25.017Z,2196
2018-11-06T08:45:34.206Z,2292
2018-11-06T08:46:42.840Z,2304
2018-11-06T08:47:51.745Z,2344
2018-11-06T08:49:00.380Z,2336
2018-11-06T08:50:09.293Z,2340
2018-11-06T08:51:17.934Z,2380
2018-11-06T08:52:26.571Z,2388
2018-11-06T08:53:35.206Z,2472
2018-11-06T08:54:43.915Z,2452
2018-11-06T08:55:52.491Z,2744
2018-11-06T08:57:01.130Z,2580
2018-11-06T08:58:09.760Z,2580
2018-11-06T08:59:18.400Z,2588
2018-11-06T09:00:27.045Z,2592
2018-11-06T09:01:35.689Z,2672
2018-11-06T09:02:44.452Z,2720
2018-11-06T09:03:53.488Z,2880
2018-11-06T09:05:02.430Z,2788
2018-11-06T09:06:11.076Z,2848
2018-11-06T09:07:19.726Z,2972
2018-11-06T09:08:28.362Z,3024
2018-11-06T09:09:37.278Z,3060
2018-11-06T09:10:45.912Z,2884
2018-11-06T09:11:54.561Z,2592
2018-11-06T09:13:03.192Z,2628
2018-11-06T09:14:11.833Z,2664
2018-11-06T09:15:20.469Z,2888
2018-11-06T09:16:29.123Z,3100
2018-11-06T09:17:37.759Z,3076
2018-11-06T09:18:46.661Z,3136
2018-11-06T09:19:55.300Z,3124
2018-11-06T09:21:03.936Z,3204
2018-11-06T09:22:12.587Z,3248
2018-11-06T09:23:21.224Z,3276
2018-11-06T09:24:29.867Z,3356
2018-11-06T09:25:38.497Z,3328
2018-11-06T09:26:47.414Z,3256
2018-11-06T09:27:56.050Z,3408
2018-11-06T09:29:04.966Z,3308
2018-11-06T09:30:13.595Z,3480
2018-11-06T09:31:22.244Z,3408
2018-11-06T09:32:30.880Z,3256
2018-11-06T09:33:39.528Z,3300
2018-11-06T09:34:48.160Z,3224
2018-11-06T09:35:56.805Z,3052
2018-11-06T09:37:05.452Z,3036
2018-11-06T09:38:14.095Z,2952
2018-11-06T09:39:22.740Z,2908
2018-11-06T09:41:40.212Z,2724
2018-11-06T09:42:48.929Z,2564
2018-11-06T09:43:57.578Z,2520
2018-11-06T09:45:06.264Z,2496
2018-11-06T09:46:14.855Z,2612
2018-11-06T09:47:23.491Z,2348
2018-11-06T09:48:32.143Z,2204
2018-11-06T09:49:40.775Z,2040
2018-11-06T09:50:49.416Z,1908
2018-11-06T09:51:58.120Z,1960
2018-11-06T09:53:06.689Z,1804
2018-11-06T09:54:15.332Z,1892
2018-11-06T09:55:23.976Z,1904
2018-11-06T09:56:32.623Z,1948
2018-11-06T09:57:41.405Z,2064
2018-11-06T09:58:50.049Z,2160
2018-11-06T09:59:59.181Z,2124
2018-11-06T10:01:08.162Z,1996
2018-11-06T10:02:17.124Z,1908
2018-11-06T10:03:26.027Z,1992
2018-11-06T10:04:34.671Z,2144
2018-11-06T10:05:43.842Z,2272
2018-11-06T10:06:53.255Z,2280
2018-11-06T10:08:02.186Z,2276
2018-11-06T10:09:11.115Z,2308
2018-11-06T10:10:20.029Z,1980
2018-11-06T10:11:28.772Z,2164
2018-11-06T10:12:37.679Z,2232
2018-11-06T10:13:46.315Z,2248
2018-11-06T10:14:54.954Z,2240
2018-11-06T10:16:03.862Z,2296
2018-11-06T10:17:12.512Z,2360
2018-11-06T10:18:21.150Z,2436
2018-11-06T10:19:29.798Z,2504
2018-11-06T10:20:38.431Z,2520
2018-11-06T10:21:47.080Z,2560
2018-11-06T10:22:55.718Z,2528
2018-11-06T10:24:04.372Z,2556
2018-11-06T10:25:13.004Z,2508
2018-11-06T10:26:21.930Z,2488
2018-11-06T10:27:30.574Z,2452
2018-11-06T10:28:39.742Z,2420
2018-11-06T10:29:48.379Z,2464
2018-11-06T10:30:57.392Z,2336
2018-11-06T10:32:05.940Z,2444
2018-11-06T10:33:14.583Z,2528
2018-11-06T10:34:23.227Z,2532
2018-11-06T10:35:31.862Z,2588
2018-11-06T10:36:40.773Z,2552
2018-11-06T10:37:49.409Z,2812
2018-11-06T10:38:58.374Z,3068
2018-11-06T10:40:07.007Z,2928
2018-11-06T10:41:15.653Z,2884
2018-11-06T10:42:24.290Z,2812
2018-11-06T10:43:32.964Z,2620
2018-11-06T10:44:41.577Z,2636
2018-11-06T10:45:50.223Z,2860
2018-11-06T10:46:58.867Z,2616
2018-11-06T10:48:07.515Z,2548
2018-11-06T10:49:16.246Z,2596
2018-11-06T10:50:25.156Z,2644
2018-11-06T10:51:33.802Z,2388
2018-11-06T10:52:42.439Z,2308
2018-11-06T10:53:51.084Z,2244
2018-11-06T10:55:00.369Z,2188
2018-11-06T10:56:09.013Z,2164
2018-11-06T10:57:18.465Z,2100
2018-11-06T10:58:27.495Z,2068
2018-11-06T10:59:37.661Z,2048
2018-11-06T11:00:47.806Z,2108
2018-11-06T11:01:56.718Z,2120
2018-11-06T11:03:05.363Z,2136
2018-11-06T11:04:14.753Z,2296
2018-11-06T11:05:23.353Z,2988
2018-11-06T11:06:32.259Z,2824
2018-11-06T11:07:40.904Z,2620
2018-11-06T11:08:49.548Z,2560
2018-11-06T11:09:58.195Z,2656
2018-11-06T11:11:06.841Z,2656
2018-11-06T11:12:15.481Z,3060
2018-11-06T11:13:24.226Z,2968
2018-11-06T11:14:32.768Z,2936
2018-11-06T11:15:41.414Z,2900
2018-11-06T11:16:50.321Z,2996
2018-11-06T11:17:58.965Z,2648
2018-11-06T11:19:07.605Z,2728
2018-11-06T11:20:16.415Z,2920
2018-11-06T11:21:24.898Z,2872
2018-11-06T11:22:33.544Z,3052
2018-11-06T11:23:42.184Z,2888
2018-11-06T11:24:51.095Z,2840
2018-11-06T11:25:59.741Z,2780
2018-11-06T11:27:08.648Z,2668
2018-11-06T11:28:17.553Z,2660
2018-11-06T11:29:26.192Z,2724
2018-11-06T11:30:34.839Z,2764
2018-11-06T11:31:43.481Z,2652
2018-11-06T11:32:52.405Z,2812
2018-11-06T11:34:01.374Z,2840
2018-11-06T11:35:10.022Z,2656
2018-11-06T11:36:18.664Z,3052
2018-11-06T11:37:27.310Z,2856
2018-11-06T11:38:35.944Z,2992
2018-11-06T11:39:44.590Z,2916
2018-11-06T11:40:53.227Z,2756
2018-11-06T11:42:02.148Z,2644
2018-11-06T11:43:10.791Z,2636
2018-11-06T11:44:19.707Z,2588
2018-11-06T11:45:28.394Z,2532
2018-11-06T11:46:37.040Z,2480
2018-11-06T11:47:45.686Z,2424
2018-11-06T11:48:54.324Z,2404
2018-11-06T11:50:02.972Z,2356
2018-11-06T11:51:11.615Z,2308
2018-11-06T11:52:20.277Z,2288
2018-11-06T11:53:28.912Z,2248
2018-11-06T11:54:37.560Z,2244
2018-11-06T11:55:46.198Z,2220
2018-11-06T11:56:55.114Z,2256
2018-11-06T11:58:03.748Z,2256
2018-11-06T11:59:12.403Z,2268
2018-11-06T12:00:21.529Z,2260
2018-11-06T12:01:30.183Z,2248
2018-11-06T12:02:39.346Z,2272
2018-11-06T12:03:47.985Z,2300
2018-11-06T12:04:57.156Z,2316
2018-11-06T12:06:05.797Z,2340
2018-11-06T12:07:14.448Z,2336
2018-11-06T12:08:23.088Z,2332
2018-11-06T12:09:31.734Z,2360
2018-11-06T12:10:40.369Z,2408
2018-11-06T12:11:49.295Z,2468
2018-11-06T12:12:58.202Z,2540
2018-11-06T12:14:07.112Z,2632
2018-11-06T12:15:16.013Z,2728
2018-11-06T12:16:24.661Z,2832
2018-11-06T12:17:33.703Z,2908
2018-11-06T12:18:42.618Z,2992
2018-11-06T12:19:51.515Z,3068
2018-11-06T12:21:00.161Z,3096
2018-11-06T12:22:08.812Z,3104
2018-11-06T12:23:17.985Z,3140
2018-11-06T12:24:26.662Z,3160
2018-11-06T12:25:35.429Z,3172
2018-11-06T12:26:44.185Z,3168
2018-11-06T12:27:53.092Z,3160
2018-11-06T12:29:01.749Z,3132
2018-11-06T12:30:10.652Z,3156
2018-11-06T12:31:19.300Z,3180
2018-11-06T12:32:27.958Z,3216
2018-11-06T12:33:36.598Z,3208
2018-11-06T12:34:45.232Z,3264
2018-11-06T12:35:54.140Z,3232
2018-11-06T12:37:03.259Z,3188
2018-11-06T12:38:12.219Z,3164
2018-11-06T12:39:20.864Z,3120
2018-11-06T12:40:29.503Z,3100
2018-11-06T12:41:38.145Z,3120
2018-11-06T12:42:47.067Z,3132
2018-11-06T12:43:55.993Z,3092
2018-11-06T12:45:04.629Z,3108
2018-11-06T12:46:13.277Z,3128
2018-11-06T12:47:21.912Z,3144
2018-11-06T12:48:30.831Z,3132
2018-11-06T12:49:39.469Z,3108
2018-11-06T12:50:48.116Z,3092
2018-11-06T12:51:56.753Z,3112
2018-11-06T12:53:05.406Z,3132
2018-11-06T12:54:14.055Z,3208
2018-11-06T12:55:22.705Z,3196
2018-11-06T12:56:31.609Z,3060
2018-11-06T12:57:40.254Z,3016
2018-11-06T12:58:48.899Z,2984
2018-11-06T12:59:57.545Z,2988
2018-11-06T13:01:06.452Z,3000
2018-11-06T13:02:15.095Z,2984
2018-11-06T13:03:23.755Z,2968
2018-11-06T13:04:32.382Z,2932
2018-11-06T13:05:41.030Z,2880
2018-11-06T13:06:49.669Z,2828
2018-11-06T13:07:58.317Z,2824
2018-11-06T13:09:06.965Z,2792
2018-11-06T13:10:15.615Z,2796
2018-11-06T13:11:24.254Z,2804
2018-11-06T13:12:32.899Z,2752
2018-11-06T13:13:41.806Z,2712
2018-11-06T13:14:50.454Z,2704
2018-11-06T13:15:59.149Z,2680
2018-11-06T13:17:08.566Z,2640
2018-11-06T13:18:17.541Z,2648
2018-11-06T13:19:26.182Z,2644
2018-11-06T13:20:34.831Z,2652
2018-11-06T13:21:43.743Z,2648
2018-11-06T13:22:52.387Z,2604
2018-11-06T13:24:01.030Z,2572
2018-11-06T13:25:09.677Z,2572
2018-11-06T13:26:18.917Z,2584
2018-11-06T13:27:27.414Z,2544
2018-11-06T13:28:36.054Z,2536
2018-11-06T13:29:44.968Z,2452
2018-11-06T13:30:53.612Z,2420
2018-11-06T13:32:02.617Z,2344
2018-11-06T13:33:11.276Z,2276
2018-11-06T13:34:20.188Z,2244
2018-11-06T13:35:28.896Z,2240
2018-11-06T13:36:37.547Z,2212
2018-11-06T13:37:46.201Z,2200
2018-11-06T13:38:55.371Z,2212
2018-11-06T13:40:04.144Z,2228
2018-11-06T13:41:13.046Z,2196
2018-11-06T13:42:21.767Z,2152
2018-11-06T13:43:31.273Z,2104
2018-11-06T13:44:41.196Z,2056
2018-11-06T13:45:49.491Z,2072
2018-11-06T13:46:58.667Z,2040
2018-11-06T13:48:07.316Z,1984
2018-11-06T13:49:16.335Z,1952
2018-11-06T13:50:24.984Z,1924
2018-11-06T13:51:33.627Z,1904
2018-11-06T13:52:42.277Z,1888
2018-11-06T13:53:50.922Z,1884
2018-11-06T13:54:59.570Z,1876
2018-11-06T13:56:08.218Z,1872
2018-11-06T13:57:16.861Z,1864
2018-11-06T13:58:25.765Z,1856
2018-11-06T13:59:34.410Z,1836
2018-11-06T14:00:43.058Z,1812
2018-11-06T14:01:51.697Z,1784
2018-11-06T14:03:00.609Z,1760
2018-11-06T14:04:09.306Z,1732
2018-11-06T14:05:17.903Z,1720
2018-11-06T14:06:26.544Z,1692
2018-11-06T14:07:35.449Z,1680
2018-11-06T14:08:44.091Z,1672
2018-11-06T14:09:52.743Z,1704
2018-11-06T14:11:01.649Z,1668
2018-11-06T14:12:10.295Z,1664
2018-11-06T14:13:18.937Z,1672
2018-11-06T14:14:27.579Z,1680
2018-11-06T14:15:36.227Z,1684
2018-11-06T14:16:44.870Z,1672
2018-11-06T14:17:53.782Z,1664
2018-11-06T14:19:02.685Z,1648
2018-11-06T14:20:11.333Z,1636
2018-11-06T14:21:20.345Z,1616
2018-11-06T14:22:29.254Z,1604
2018-11-06T14:23:37.902Z,1584
2018-11-06T14:24:46.547Z,1560
2018-11-06T14:25:55.187Z,1540
2018-11-06T14:27:04.117Z,1516
2018-11-06T14:28:13.001Z,1496
2018-11-06T14:29:21.649Z,1476
2018-11-06T14:30:30.291Z,1440
2018-11-06T14:31:38.944Z,1412
2018-11-06T14:32:47.857Z,1388
2018-11-06T14:33:56.494Z,1368
2018-11-06T14:35:05.147Z,1356
2018-11-06T14:36:14.060Z,1336
2018-11-06T14:37:22.705Z,1324
2018-11-06T14:38:31.615Z,1316
2018-11-06T14:39:40.526Z,1288
2018-11-06T14:40:49.171Z,1260
2018-11-06T14:41:57.818Z,1236
2018-11-06T14:43:06.459Z,1212
2018-11-06T14:44:15.107Z,1188
2018-11-06T14:45:24.035Z,1156
2018-11-06T14:46:33.206Z,1124
2018-11-06T14:47:41.893Z,1100
2018-11-06T14:48:50.922Z,1072
2018-11-06T14:49:59.747Z,1044
2018-11-06T14:51:08.653Z,1020
2018-11-06T14:52:17.306Z,988
2018-11-06T14:53:26.209Z,972
2018-11-06T14:54:34.855Z,948
2018-11-06T14:55:43.529Z,920
2018-11-06T14:56:52.147Z,896
2018-11-06T14:58:00.789Z,872
2018-11-06T14:59:09.700Z,848
2018-11-06T15:00:18.348Z,820
2018-11-06T15:01:27.536Z,796
2018-11-06T15:02:36.177Z,776
2018-11-06T15:03:44.823Z,756
2018-11-06T15:04:53.465Z,732
2018-11-06T15:06:02.110Z,704
2018-11-06T15:07:10.757Z,684
2018-11-06T15:08:19.407Z,660
2018-11-06T15:09:28.320Z,632
2018-11-06T15:10:36.956Z,612
2018-11-06T15:11:45.603Z,588
2018-11-06T15:12:54.646Z,568
2018-11-06T15:14:03.305Z,548
2018-11-06T15:15:11.942Z,524
2018-11-06T15:16:20.854Z,504
2018-11-06T15:17:29.495Z,484
2018-11-06T15:18:38.143Z,464
2018-11-06T15:19:47.052Z,440
2018-11-06T15:20:56.171Z,424
2018-11-06T15:22:05.134Z,404
2018-11-06T15:23:14.045Z,384
2018-11-06T15:24:22.953Z,364
2018-11-06T15:25:31.593Z,352
2018-11-06T15:26:40.238Z,328
2018-11-06T15:27:49.140Z,312
2018-11-06T15:28:57.792Z,300
2018-11-06T15:30:06.706Z,280
2018-11-06T15:31:15.622Z,264
2018-11-06T15:32:24.360Z,252
2018-11-06T15:33:32.914Z,240
2018-11-06T15:34:41.554Z,224
2018-11-06T15:35:50.205Z,216
2018-11-06T15:36:58.856Z,204
2018-11-06T15:38:07.507Z,192
2018-11-06T15:39:16.177Z,180
2018-11-06T15:40:25.064Z,172
2018-11-06T15:41:34.662Z,160
2018-11-06T15:42:43.163Z,144
2018-11-06T15:43:52.081Z,132
2018-11-06T15:45:00.724Z,120
2018-11-06T15:46:09.631Z,112
2018-11-06T15:47:18.279Z,100
2018-11-06T15:48:26.968Z,92
2018-11-06T15:49:35.600Z,80
2018-11-06T15:50:44.242Z,76
2018-11-06T15:51:52.885Z,68
2018-11-06T15:53:01.530Z,64
2018-11-06T15:54:10.173Z,56
2018-11-06T15:55:18.811Z,52
2018-11-06T15:56:27.726Z,44
2018-11-06T15:57:36.367Z,40
2018-11-06T15:58:45.276Z,36
2018-11-06T15:59:53.917Z,32